Des Moines International Airport
KDSM : now visible

Airfield :











YOU CAN JOIN US ON...

 
LOGIN :

Register | Disclaimer

   EN    FR    IT 

 









Legend :    VFR   Marginal VFR   IFR   Intensive IFR   Very Intensive IFR
Visi :
Ceiling :
>= 8 km
>= 3000ft
5 to 8 km
1000 to 3000 ft
1500m to 5 km
500 to 1000 ft
800 to 1500m
200 to 500 ft
< 800m
< 200 ft
Symbols :   Thunderstorms  Fog  Heavy snow  Heavy precipitations  Wind > 20 kt







- Airport Elevation : 958 ft
- IATA code : DSM


KDSM - Des Moines International

CURRENT METAR :
  • 212154Z 19010KT 3SM -RA BR FEW006 OVC013 23/22 A2986 RMK AO2 DZB01E34RAB10E23B52 SLP105 P0001 T02330222

EXPIRED METARs :
  • 212105Z COR 19012G19KT 3SM -DZ BR SCT006 BKN014 OVC021 23/22 A2987 RMK AO2 DZB01 P0000 T02330217
  • 212054Z 19009G18KT 9SM FEW009 BKN015 OVC022 23/22 A2987 RMK AO2 DZE23RAB23E35 SLP109 P0000 60000 T02330222 57004
  • 212033Z 19012KT 3SM -RA BR SCT009 BKN015 OVC022 23/22 A2987 RMK AO2 SFC VIS 6 DZE23RAB23 P0000 T02330217
  • 212024Z 19012KT 2 1/2SM -RA BR SCT010 OVC015 23/22 A2988 RMK AO2 TWR VIS 3 VIS 1 1/2V5 DZE23RAB23 P0000 T02330217
  • 211954Z 19012KT 5SM -DZ BR BKN014 OVC019 23/22 A2988 RMK AO2 DZB54 SLP110 P0000 T02330217
  • 211930Z 19014G23KT 8SM BKN014 OVC031 24/21 A2988 RMK AO2 T02390211
  • 211908Z 19014KT 10SM BKN016 OVC031 24/21 A2988 RMK AO2 T02390211

TAF KDSM
Valid from the 21 at 18:00 until the 22 at 18:00 UTC


211720Z 2118/2218 19012G24KT P6SM VCSH OVC015
TEMPO 2200/2203 4SM -TSRA OVC015CB
FM220300 21010KT P6SM VCTS SCT015CB OVC035
FM221500 33008KT 4SM -SHRA VCTS OVC015CB
No reported NOTAMs for that airfield.



MET'MAP, your aeronautical weather chart ! - Copyright ORBIFLY December 2007 - Disclaimer

ORBIFLY MET'MAP TEAM :

Programming & Development : Alexandra Zaïnal
Concept & Development : Baudouin d'Aumeries
Co-Development & Prog : Marc-Olivier Méhu
Technical & hardware support : Manuel Goepfert

Contact : metmap@orbifly.com




SOURCES & CREDITS :

   NOAA       Earth
Advisory